Date,TemperatureHighF,TemperatureAvgF,TemperatureLowF,DewpointHighF,DewpointAvgF,DewpointLowF,HumidityHigh,HumidityAvg,HumidityLow,PressureMaxIn,PressureMinIn,WindSpeedMaxMPH,WindSpeedAvgMPH,GustSpeedMaxMPH,PrecipitationSumIn
2014-1-1,59.7,51.3,42.9,58.0,50.7,42.4,99,98,93,30.28,29.97,1,0,1,0.10
2014-1-2,59.3,51.5,35.0,58.9,47.2,27.2,100,86,66,30.29,29.86,11,0,11,0.62
2014-1-3,46.1,33.9,26.1,27.6,23.8,19.9,94,69,37,30.41,30.27,11,0,11,0.00
2014-1-4,63.0,43.9,26.2,52.7,39.7,24.7,95,86,64,30.27,29.99,5,0,5,0.00
2014-1-5,65.7,55.4,43.3,60.4,52.4,38.6,96,90,79,30.01,29.79,11,0,11,0.00
2014-1-6,42.9,31.0,23.5,38.6,19.4,9.0,86,64,35,30.57,30.02,7,1,14,0.00
2014-1-7,38.1,25.2,15.0,17.6,12.6,6.5,90,62,33,30.65,30.47,7,0,7,0.00
2014-1-8,51.8,32.7,18.4,26.1,20.5,15.7,92,65,32,30.51,30.32,2,0,4,0.00
2014-1-9,66.7,44.9,28.4,51.8,38.2,23.8,97,79,57,30.34,30.15,5,0,5,0.00
2014-1-10,65.5,56.7,44.6,65.5,55.9,43.6,100,97,90,30.17,29.83,8,0,8,0.05
2014-1-11,77.2,63.0,40.0,68.7,54.6,34.4,100,78,39,30.04,29.76,9,1,9,0.27
2014-1-12,68.3,46.8,32.2,45.4,39.0,31.5,98,79,35,30.18,30.04,6,0,7,0.00
2014-1-13,61.8,56.9,42.6,61.5,56.5,41.7,100,98,96,30.05,29.77,4,0,4,0.67
2014-1-14,66.3,50.7,38.0,57.1,45.2,37.2,100,84,40,30.05,29.86,6,0,6,0.01
2014-1-15,57.0,43.6,30.6,40.8,32.7,22.0,98,70,29,30.16,30.00,6,0,10,0.00
2014-1-16,54.7,40.4,25.0,43.0,32.7,24.0,97,77,41,30.20,30.03,6,0,6,0.00
2014-1-17,63.0,47.9,30.1,45.4,35.2,23.2,97,66,28,30.20,30.03,7,0,7,0.00
2014-1-18,55.9,39.9,24.4,39.7,28.8,19.8,94,69,30,30.29,30.06,5,0,5,0.00
2014-1-19,66.2,49.4,35.4,50.5,42.2,34.3,98,80,34,30.17,30.04,4,0,6,0.04
2014-1-20,68.5,45.9,30.6,51.7,40.6,29.9,99,85,35,30.10,29.91,5,0,5,0.00
2014-1-21,62.4,50.6,31.0,56.6,36.3,22.1,99,63,27,30.16,29.86,12,1,12,0.00
2014-1-22,55.0,36.5,25.5,32.8,25.0,18.8,94,67,27,30.23,30.09,2,0,5,0.00
2014-1-23,58.3,43.6,29.3,32.9,29.3,23.4,97,62,31,30.51,30.15,9,0,9,0.00
2014-1-24,37.7,32.7,29.7,28.8,21.9,13.2,92,66,45,30.56,30.30,6,0,8,0.00
2014-1-25,60.3,41.7,30.9,44.7,37.0,28.8,97,85,51,30.30,29.96,5,0,5,0.01
2014-1-26,61.4,44.8,32.3,46.7,40.3,31.5,99,86,49,30.03,29.84,5,0,5,0.00
2014-1-27,66.8,56.4,45.0,63.1,51.4,25.0,99,84,46,30.04,29.82,7,0,8,0.11
2014-1-28,45.0,32.8,26.0,29.0,22.4,11.6,93,70,37,30.30,30.01,11,1,11,0.00
2014-1-29,35.3,27.5,20.6,21.6,13.4,9.2,83,57,36,30.44,30.26,12,0,12,0.00
2014-1-30,52.6,30.2,16.1,30.5,19.8,13.1,95,70,22,30.34,30.11,4,0,5,0.15
2014-1-31,64.0,42.0,25.4,51.0,37.7,24.4,97,86,59,30.18,30.01,4,0,5,0.00
2014-2-1,72.3,55.3,35.9,64.3,53.2,35.1,99,93,75,30.05,29.96,8,0,8,0.01
2014-2-2,67.1,63.5,61.2,67.1,63.3,60.6,100,99,98,30.00,29.86,6,0,6,0.11
2014-2-3,64.7,50.0,43.1,64.7,48.8,42.3,100,96,82,30.08,29.87,5,0,8,0.30
2014-2-4,68.0,55.4,42.9,67.9,54.8,42.3,100,98,94,30.04,29.80,13,1,13,0.23
2014-2-5,65.3,49.8,38.1,65.0,44.8,33.6,99,83,61,30.24,29.85,11,1,11,0.19
2014-2-6,38.5,35.6,30.5,34.0,30.9,28.7,97,83,73,30.33,30.20,9,0,9,0.07
2014-2-7,57.4,42.3,28.7,44.0,36.3,27.7,97,81,53,30.33,30.13,6,0,6,0.00
2014-2-8,67.8,50.9,39.1,52.7,44.1,36.3,97,79,54,30.19,30.03,5,0,5,0.00
2014-2-9,70.3,52.2,37.3,57.1,48.1,36.8,99,88,59,30.14,29.99,3,0,5,0.00
2014-2-10,68.6,56.3,47.9,63.6,54.9,47.4,100,95,81,30.06,29.96,5,0,5,0.09
2014-2-11,47.9,42.4,39.0,47.3,41.9,38.5,98,98,97,30.07,29.95,8,0,8,0.64
2014-2-12,48.0,43.3,38.9,47.7,42.7,37.9,99,98,96,29.99,29.77,10,0,10,0.84
2014-2-13,57.7,42.6,35.4,46.6,38.7,34.7,98,87,55,30.03,29.89,8,0,8,0.00
2014-2-14,61.6,48.6,31.0,55.2,44.1,30.5,99,86,54,29.99,29.78,9,1,9,0.00
2014-2-15,64.7,49.2,38.8,47.9,39.8,34.6,97,73,36,30.14,29.86,8,0,8,0.00
2014-2-16,72.9,50.8,32.6,55.2,44.9,32.1,99,84,36,30.16,30.04,6,0,6,0.00
2014-2-17,73.7,61.5,50.5,67.3,59.3,49.9,100,93,78,30.09,30.01,10,1,10,0.00
2014-2-18,73.5,64.4,61.1,67.8,63.3,60.7,100,97,81,30.12,29.99,6,0,6,0.00
2014-2-19,78.4,68.2,63.2,70.2,65.8,62.7,100,93,71,30.04,29.91,9,0,9,0.00
2014-2-20,78.3,69.8,64.9,73.1,68.3,64.6,100,95,82,29.92,29.77,12,1,12,0.00
2014-2-21,70.5,69.9,69.1,69.9,69.5,68.8,99,99,98,29.78,29.76,13,3,13,0.02
2014-3-8,71.6,61.4,52.8,59.0,54.9,51.7,97,80,61,30.12,30.02,6,0,6,0.00
2014-3-9,78.1,61.2,49.1,61.4,55.5,48.6,99,83,51,30.17,30.03,2,0,5,0.00
2014-3-10,81.0,61.8,45.8,62.0,54.7,45.2,99,81,45,30.11,29.90,6,0,6,0.00
2014-3-11,65.7,61.0,54.1,65.4,60.3,53.5,99,98,92,29.92,29.63,4,0,4,0.48
2014-3-12,69.9,60.9,47.7,63.1,55.7,37.3,99,84,56,30.08,29.64,5,0,12,0.00
2014-3-13,68.5,50.1,32.3,45.7,38.5,31.3,98,70,31,30.26,30.06,9,0,9,0.00
2014-3-14,70.5,52.7,34.0,56.0,46.5,33.5,99,82,54,30.24,30.06,10,0,10,0.00
2014-3-15,66.5,60.5,52.1,65.7,59.6,49.7,100,97,88,30.08,29.78,4,0,4,0.71
2014-3-16,78.6,67.8,62.3,73.4,66.7,61.7,100,96,71,29.77,29.51,9,1,13,1.14
2014-3-17,62.5,52.5,45.0,62.2,48.2,41.0,99,86,66,29.81,29.59,4,0,9,0.00
2014-3-18,63.7,51.2,43.3,52.7,45.9,40.7,92,83,59,29.95,29.77,8,0,8,0.00
2014-3-19,73.0,55.6,42.1,62.1,51.9,41.6,99,88,64,30.08,29.93,4,0,6,0.00
2014-3-20,79.8,61.2,49.1,58.7,52.9,48.3,99,78,40,30.08,29.96,3,0,6,0.00
2014-3-21,78.1,58.5,40.8,55.8,48.9,40.2,99,76,35,30.06,29.94,9,0,9,0.00
2014-3-22,82.0,63.8,51.5,67.7,59.1,50.6,99,87,48,30.00,29.90,8,0,8,0.00
2014-3-23,77.1,65.5,53.5,70.0,61.3,48.2,99,87,68,30.10,29.89,8,0,9,0.04
2014-3-24,69.0,56.7,48.4,53.0,48.4,46.0,96,76,48,30.08,29.89,4,0,6,0.00
2014-3-25,68.7,53.9,40.9,47.7,36.1,26.1,97,57,23,30.21,29.95,6,1,13,0.00
2014-3-26,59.4,46.6,30.8,42.3,33.4,26.9,95,64,30,30.35,30.14,6,0,6,0.00
2014-3-27,71.0,60.2,46.4,63.9,54.8,41.3,98,83,62,30.19,29.94,9,1,9,0.07
2014-3-28,65.2,64.7,64.4,64.9,64.2,63.1,99,98,98,29.95,29.82,3,0,3,0.49
2014-3-29,74.5,64.7,50.6,64.2,54.2,46.0,99,70,46,30.13,29.92,10,1,10,0.44
2014-3-30,74.5,56.0,43.0,54.5,46.1,41.8,97,74,33,30.21,30.06,3,0,6,0.00
2014-3-31,75.8,56.4,38.0,58.4,47.6,37.5,99,78,35,30.11,30.01,5,0,6,0.00
2014-4-1,77.9,61.7,46.9,66.5,57.6,46.4,99,88,63,30.09,30.01,7,0,7,0.00
2014-4-2,80.0,69.2,55.9,71.3,65.8,55.3,99,90,71,30.04,29.97,11,1,11,0.00
2014-4-3,79.5,72.6,67.5,71.4,68.7,66.6,97,88,72,29.97,29.86,6,2,12,0.00
2014-4-4,79.3,71.5,66.2,73.8,69.1,65.4,99,92,73,29.95,29.81,5,0,5,0.41
2014-4-5,66.9,60.8,56.2,66.1,56.7,52.0,98,87,67,30.00,29.90,7,0,7,0.34
2014-4-6,72.3,63.7,55.9,71.6,63.1,55.3,99,98,93,29.92,29.62,10,0,10,0.07
2014-4-7,79.8,70.9,58.3,72.7,66.2,52.5,100,86,58,29.82,29.56,6,0,8,0.25
2014-4-8,65.0,54.2,46.2,61.2,51.1,45.7,99,90,60,29.96,29.74,1,0,9,0.51
2014-4-9,75.7,57.9,44.4,55.0,48.3,42.2,99,76,31,30.17,29.96,6,0,8,0.00
2014-4-10,75.7,58.7,42.6,58.9,50.0,42.0,99,78,38,30.19,30.11,5,0,6,0.00
2014-4-11,78.8,63.4,49.6,67.0,58.5,49.2,100,86,58,30.16,30.04,6,0,6,0.00
2014-4-12,80.7,66.9,55.3,69.2,60.3,54.8,99,82,52,30.10,29.99,3,0,6,0.00
2014-4-13,82.0,71.0,57.9,70.9,65.8,57.3,98,85,60,30.01,29.85,9,1,9,0.00
2014-4-14,77.8,68.6,64.3,73.2,67.1,62.4,99,95,77,29.86,29.60,9,0,9,3.54
2014-4-15,64.4,53.0,41.3,64.1,45.8,34.7,100,80,40,30.12,29.71,16,1,16,0.64
2014-4-16,68.0,49.7,34.7,52.4,41.8,33.9,98,78,35,30.19,30.06,5,0,5,0.00
2014-4-17,69.6,59.0,42.9,63.6,56.4,42.1,98,91,76,30.15,30.06,4,0,4,0.02
2014-4-18,69.3,62.4,57.9,64.2,60.0,55.2,99,92,81,30.09,29.97,5,0,9,0.52
2014-4-19,81.5,65.0,53.2,61.2,55.8,52.1,97,76,44,30.07,29.95,10,0,10,0.00
2014-4-20,82.8,64.0,51.1,66.6,57.5,50.6,99,82,43,30.12,30.02,8,0,8,0.00
2014-4-21,74.8,62.4,50.7,65.5,58.5,50.2,99,88,67,30.10,29.93,4,0,4,0.00
2014-4-22,82.5,66.3,51.8,71.8,62.4,51.3,100,89,57,29.94,29.78,4,0,4,0.00
2014-4-23,84.3,69.3,56.5,72.9,64.1,56.2,100,85,52,29.90,29.80,3,0,4,0.00
2014-4-24,82.8,70.2,57.4,72.7,65.7,57.1,100,87,62,29.92,29.79,5,0,5,0.00
2014-4-25,87.3,75.9,68.2,75.0,70.7,67.6,98,85,59,29.91,29.82,4,0,4,0.00
2014-4-26,85.2,74.0,64.8,75.6,70.6,64.2,99,90,69,29.93,29.84,4,0,4,0.00
2014-4-27,82.3,76.4,72.2,75.4,73.4,71.3,98,91,77,29.86,29.72,10,1,10,0.00
2014-4-28,83.3,77.7,75.3,77.5,75.2,73.6,96,92,81,29.76,29.58,9,2,9,0.00
2014-4-29,76.4,69.2,63.2,74.9,68.8,62.9,100,99,93,29.70,29.53,10,0,10,10.96
2014-4-30,84.4,71.1,58.2,73.8,62.8,55.8,100,79,39,29.98,29.63,3,0,6,0.02
2014-5-1,76.3,63.4,54.2,58.7,53.1,46.5,96,72,40,30.04,29.90,9,0,9,0.00
2014-5-2,79.8,64.7,52.0,60.3,54.5,47.8,98,73,36,29.95,29.84,5,0,5,0.00
2014-5-3,84.8,66.4,48.9,63.0,56.1,48.1,99,75,33,30.02,29.93,3,0,8,0.00
2014-5-4,90.0,71.0,55.1,70.4,62.6,54.5,99,79,37,30.08,29.96,3,0,3,0.00
2014-5-5,87.0,66.9,57.4,68.0,61.5,55.3,99,86,37,30.00,29.90,3,0,3,0.00
2014-5-6,84.7,69.1,54.0,70.8,62.8,53.5,100,83,51,29.96,29.88,4,0,4,0.00
2014-5-7,87.4,71.8,60.9,73.3,67.0,60.2,99,86,58,30.02,29.89,5,0,5,0.00
2014-5-8,87.0,73.9,61.5,75.7,69.4,61.2,100,87,64,30.05,29.96,5,0,5,0.00
2014-5-9,79.8,73.4,66.7,76.8,72.1,66.4,99,96,89,30.00,29.91,7,0,7,3.88
2014-5-10,84.6,73.7,65.3,78.5,71.9,65.0,100,94,80,29.97,29.90,1,0,4,0.51
2014-5-11,87.5,77.9,71.7,79.7,75.2,71.3,100,92,73,29.98,29.91,4,0,4,0.00
2014-5-12,90.6,78.8,69.9,78.7,74.5,69.2,98,88,64,30.04,29.92,3,0,7,0.00
2014-5-13,91.8,76.4,65.1,78.6,71.6,64.8,100,87,54,30.01,29.90,4,0,4,0.00
2014-5-14,78.5,69.7,59.1,76.4,68.9,56.8,100,97,90,29.98,29.79,10,0,10,1.94
2014-5-15,74.5,60.9,49.9,57.4,51.5,48.0,95,74,41,30.12,29.98,7,0,12,0.00
2014-5-16,83.3,64.5,46.7,65.8,56.9,46.2,99,79,49,30.13,29.99,4,0,4,0.00
2014-5-17,87.0,69.5,54.9,68.7,61.3,54.3,99,78,44,30.10,30.03,4,0,4,0.00
2014-5-18,90.4,70.2,54.7,71.3,62.3,54.2,99,80,37,30.12,30.04,1,0,3,0.00
2014-5-19,91.0,70.5,54.9,72.9,61.9,54.3,100,78,41,30.11,30.05,0,0,1,0.00
2014-5-20,88.7,71.6,55.8,74.1,65.6,55.2,99,84,53,30.14,30.05,4,0,4,0.00
2014-5-21,90.2,73.8,60.6,76.4,66.9,60.3,100,82,48,30.13,30.05,4,0,4,0.00
2014-5-22,94.3,74.2,58.7,76.1,66.7,58.4,100,81,44,30.13,30.00,2,0,3,0.00
2014-5-23,94.2,75.8,62.1,75.8,67.6,61.6,99,79,42,30.08,29.96,3,0,3,0.00
2014-5-24,92.5,76.6,65.2,78.6,71.0,64.6,99,85,51,30.05,29.95,4,0,4,0.00
2014-5-25,95.5,76.8,64.0,75.9,67.9,61.3,100,78,37,30.03,29.94,1,0,3,0.00
2014-5-26,93.7,76.3,62.4,77.2,69.8,61.8,99,83,48,30.08,29.99,1,0,4,0.00
2014-5-27,91.0,77.3,69.0,78.4,73.1,68.4,99,88,64,30.03,29.90,5,0,5,0.07
2014-5-28,78.5,73.7,69.6,77.3,73.0,69.3,99,98,92,29.91,29.82,3,0,7,2.38
2014-5-29,80.8,72.1,68.6,78.4,71.7,68.3,100,99,86,29.88,29.80,8,0,8,1.93
2014-5-30,83.9,75.6,70.8,81.2,73.8,70.3,100,95,80,29.91,29.81,3,0,3,0.36
2014-5-31,81.9,73.5,70.1,77.6,72.2,69.8,99,96,83,29.93,29.87,4,0,9,0.50
2014-6-1,89.5,76.4,69.5,80.6,74.2,69.5,100,93,70,29.98,29.90,2,0,5,0.17
2014-6-2,85.2,76.5,72.1,80.4,74.8,71.8,100,95,78,30.00,29.93,10,0,10,0.60
2014-6-3,88.7,76.7,70.4,80.3,74.3,69.8,100,93,73,29.99,29.91,2,0,2,0.07
2014-6-4,92.2,77.5,67.5,79.8,73.1,67.2,100,88,62,29.92,29.83,1,0,1,0.00
2014-6-5,92.4,78.9,69.2,81.4,74.2,68.8,100,87,64,29.87,29.81,4,0,4,0.00
2014-6-6,95.0,80.7,69.3,82.6,76.1,69.0,100,87,63,29.91,29.82,3,0,3,0.00
2014-6-7,95.3,82.8,73.9,84.8,78.5,73.6,99,88,65,29.92,29.81,3,0,3,0.00
2014-6-8,97.3,83.1,73.9,84.7,77.9,73.6,100,86,61,29.91,29.79,4,0,4,0.00
2014-6-9,94.0,83.0,73.2,82.5,77.7,72.6,99,85,63,29.85,29.78,6,0,6,0.00
2014-6-10,87.0,76.8,70.3,79.9,74.0,69.0,100,91,72,29.87,29.76,4,0,5,1.06
2014-6-11,92.1,78.8,69.7,77.0,73.0,68.8,100,84,54,29.83,29.73,2,0,4,0.00
2014-6-12,92.3,78.1,66.0,78.2,71.3,65.2,100,82,46,29.87,29.78,2,0,2,0.00
2014-6-13,81.9,73.5,69.6,75.1,72.0,69.0,99,95,75,29.94,29.80,1,0,7,0.34
2014-6-14,92.0,77.2,66.9,81.2,73.3,66.6,100,89,57,29.93,29.87,3,0,3,0.00
2014-6-15,95.3,79.9,68.0,81.0,74.3,67.7,100,85,60,30.01,29.89,3,0,3,0.00
2014-6-16,96.4,81.0,70.3,81.1,75.4,70.0,100,85,55,30.09,29.99,3,0,3,0.00
2014-6-17,97.5,81.4,69.6,81.7,74.2,69.3,100,82,48,30.08,29.98,8,0,8,0.00
2014-6-18,97.5,78.8,69.2,83.0,74.6,68.9,99,88,58,30.05,29.97,3,0,3,0.00
2014-6-19,96.5,80.4,70.3,82.8,76.3,70.0,100,88,60,30.05,29.97,2,0,2,0.02
2014-6-20,95.3,77.7,70.5,83.2,74.7,70.2,100,92,59,30.03,29.92,8,0,8,2.13
2014-6-21,97.4,80.2,69.1,83.7,75.4,69.1,100,87,58,29.97,29.81,3,0,4,0.00
2014-6-22,94.8,78.1,71.4,83.0,75.2,71.1,99,92,66,29.91,29.80,4,0,4,0.17
2014-6-23,86.6,75.8,70.6,83.0,74.4,70.3,100,96,80,29.96,29.82,3,0,3,0.64
2014-6-24,96.1,80.0,70.6,83.5,75.6,70.0,100,88,60,30.01,29.93,3,0,4,0.00
2014-6-25,93.1,79.1,70.7,81.5,75.2,70.1,99,89,63,30.08,29.95,3,0,3,0.20
2014-6-26,92.8,76.8,70.6,83.2,74.9,70.3,100,94,69,30.06,29.91,4,0,4,0.29
2014-6-27,93.5,79.2,70.9,83.6,75.8,70.6,100,90,65,30.03,29.94,4,0,4,0.02
2014-6-28,95.8,81.0,70.7,83.9,76.8,70.1,99,88,64,30.06,29.98,4,0,4,0.00
2014-6-29,96.1,83.5,73.6,85.0,78.9,73.3,100,87,62,30.09,29.99,2,0,3,0.00
2014-6-30,96.4,83.2,73.7,86.0,78.6,73.4,100,87,63,30.02,29.90,2,0,3,0.00
2014-7-1,96.7,83.0,73.5,83.2,77.9,73.2,100,86,57,29.95,29.85,6,0,6,0.00
2014-7-2,96.3,81.9,73.1,87.6,77.8,72.5,100,89,62,29.95,29.85,6,0,6,0.11
2014-7-3,91.5,79.5,70.4,80.3,74.3,70.1,99,86,59,30.01,29.88,5,0,5,0.01
2014-7-4,91.0,78.2,67.2,75.0,70.2,65.8,99,79,44,30.10,30.01,4,0,4,0.00
2014-7-5,91.8,75.9,62.9,75.9,68.7,62.3,99,81,47,30.10,29.99,4,0,4,0.00
2014-7-6,95.9,78.3,66.0,76.6,70.4,65.7,99,80,43,30.01,29.91,2,0,2,0.00
2014-7-7,95.5,78.9,65.6,79.2,71.4,65.2,100,81,44,30.00,29.91,2,0,2,0.00
2014-7-8,94.8,79.9,68.9,80.7,74.7,68.5,100,86,59,30.04,29.93,4,0,4,0.00
2014-7-9,96.3,78.1,71.0,82.7,74.6,70.5,100,90,60,30.02,29.93,1,0,3,0.00
2014-7-10,95.5,77.9,68.9,82.3,74.7,68.6,100,91,58,30.03,29.94,8,0,8,0.09
2014-7-11,94.6,78.3,70.6,82.6,74.9,70.3,100,90,63,30.06,29.99,4,0,4,0.00
2014-7-12,95.5,80.1,70.4,83.7,75.7,70.1,100,88,61,30.07,29.96,3,0,3,0.00
2014-7-13,94.7,78.8,71.5,85.0,76.3,71.2,100,93,68,30.05,29.92,3,0,3,0.23
2014-7-14,89.3,77.4,70.7,83.0,76.0,70.4,100,96,76,29.99,29.86,1,0,1,0.18
2014-7-15,91.3,78.2,71.8,83.9,76.6,71.5,100,95,76,29.91,29.80,5,0,5,0.46
2014-7-16,90.2,76.9,65.7,79.4,72.0,64.5,100,86,59,29.90,29.81,5,0,5,0.00
2014-7-17,89.5,74.5,61.4,76.0,68.7,60.4,100,84,51,29.96,29.87,3,0,3,0.00
2014-7-18,81.5,74.2,68.6,80.6,73.8,68.0,100,98,92,29.94,29.83,5,0,5,0.20
2014-7-19,88.8,79.4,73.9,83.9,78.4,73.9,100,97,79,29.95,29.86,3,0,3,2.21
2014-7-20,89.8,78.5,72.8,83.8,77.0,72.5,100,95,79,29.96,29.87,5,0,6,0.11
2014-7-21,93.7,80.3,72.5,81.7,75.7,72.0,100,87,57,29.96,29.88,4,0,4,0.00
2014-7-22,92.8,76.2,69.6,82.6,73.8,69.3,100,93,63,29.97,29.89,4,0,4,0.28
2014-7-23,86.9,75.9,67.9,82.7,74.0,67.8,100,94,77,29.99,29.87,1,0,2,0.01
2014-7-24,93.7,79.0,69.5,82.3,75.1,69.0,100,89,64,29.95,29.84,3,0,3,0.00
2014-7-25,93.6,78.9,71.5,84.2,76.7,70.6,100,94,69,29.95,29.88,4,0,4,1.79
2014-7-26,95.0,81.4,73.7,86.0,78.9,73.7,100,93,69,30.00,29.91,4,0,4,0.05
2014-7-27,95.8,83.1,74.2,84.8,79.2,74.2,100,89,64,30.01,29.91,4,0,4,0.00
2014-7-28,97.0,84.0,76.0,86.4,80.2,75.7,100,89,64,29.98,29.85,5,0,5,0.00
2014-7-29,91.3,78.5,69.3,78.4,71.8,68.0,99,82,51,29.99,29.88,4,0,4,0.00
2014-7-30,89.7,75.5,64.5,70.5,66.1,63.0,96,75,44,29.99,29.90,4,0,4,0.00
2014-7-31,90.8,74.5,62.3,74.1,68.0,62.0,100,83,47,29.97,29.89,3,0,4,0.00
2014-8-1,86.5,74.7,69.5,76.3,72.0,69.0,99,92,67,29.95,29.88,2,0,2,0.00
2014-8-2,97.3,78.3,66.7,80.2,72.5,66.7,100,85,49,29.94,29.86,2,0,2,0.00
2014-8-3,94.6,76.5,71.0,82.9,74.3,70.4,99,93,64,29.94,29.85,4,0,4,0.64
2014-8-4,94.7,78.1,69.0,82.5,74.8,68.7,100,91,59,29.95,29.84,5,0,5,1.33
2014-8-5,96.1,80.2,68.9,83.7,75.9,68.0,100,88,57,30.00,29.91,2,0,2,0.00
2014-8-6,96.3,80.4,71.9,84.5,77.1,71.3,100,91,63,29.98,29.89,2,0,2,0.00
2014-8-7,94.2,79.6,71.4,84.6,77.1,70.6,99,93,70,29.95,29.83,2,0,2,0.08
2014-8-8,96.8,81.6,74.5,85.0,78.6,73.7,99,92,64,29.95,29.84,3,0,3,0.50
2014-8-9,95.5,79.7,73.0,85.9,77.3,72.4,99,93,71,29.97,29.86,6,0,6,0.27
2014-8-10,93.8,78.3,69.5,85.3,75.7,68.9,99,92,70,29.99,29.87,3,0,3,0.01
2014-8-11,94.9,79.3,70.7,84.1,75.9,70.7,100,90,65,29.96,29.84,1,0,8,0.02
2014-8-12,93.7,79.1,70.8,84.0,76.5,70.5,100,92,69,29.89,29.79,2,0,4,1.09
2014-8-13,93.0,79.7,72.2,82.9,76.1,70.6,100,90,64,29.92,29.84,3,0,3,0.00
2014-8-14,90.7,77.5,66.5,78.4,71.4,64.7,97,83,54,29.97,29.86,3,0,3,0.00
2014-8-15,93.5,77.4,64.4,77.8,71.0,63.4,100,83,51,29.98,29.86,5,0,5,0.00
2014-8-16,94.0,76.6,67.5,84.4,74.6,66.5,99,94,69,29.97,29.89,7,0,7,0.69
2014-8-17,90.0,77.9,74.2,84.0,76.7,73.3,99,96,78,29.99,29.92,3,0,3,0.29
2014-8-18,92.3,78.9,72.0,85.0,77.0,71.6,100,94,78,29.95,29.84,0,0,3,0.02
2014-8-19,93.6,82.0,74.9,84.3,78.4,74.0,100,90,69,29.94,29.83,3,0,3,0.00
2014-8-20,96.8,82.3,73.2,84.7,77.9,72.3,98,88,65,30.01,29.88,1,0,3,0.00
2014-8-21,96.3,82.6,72.7,85.4,77.9,71.7,98,87,65,30.07,29.98,1,0,1,0.00
2014-8-22,97.8,82.9,72.7,85.3,77.7,71.5,97,86,59,30.03,29.91,4,0,4,0.00
2014-8-23,99.0,83.5,74.4,84.7,78.2,73.0,97,86,58,29.94,29.82,6,0,6,0.00
2014-8-24,99.1,84.1,73.5,83.5,77.4,72.2,97,82,55,29.86,29.74,5,0,5,0.00
2014-8-25,92.1,81.1,73.4,81.9,76.9,71.3,95,88,67,29.87,29.78,5,0,5,0.02
2014-8-26,93.3,79.2,69.2,79.2,73.1,66.7,95,83,55,29.94,29.84,5,0,5,0.00
2014-8-27,93.8,78.5,71.4,81.2,75.0,70.2,97,90,63,29.96,29.89,4,0,4,0.08
2014-8-28,92.8,79.1,72.4,81.5,75.3,71.2,97,89,64,29.93,29.84,4,0,4,0.00
2014-8-29,90.3,76.6,70.5,82.6,74.3,69.6,97,93,73,29.95,29.87,1,0,8,0.86
2014-8-30,90.8,79.0,73.8,83.1,76.3,72.5,98,92,74,29.99,29.92,6,0,6,0.03
2014-8-31,97.2,81.9,72.9,84.0,77.2,72.0,98,87,61,30.02,29.95,2,0,4,0.00
2014-9-1,95.4,81.5,73.5,83.4,77.1,72.1,98,88,62,30.00,29.92,5,0,5,0.00
2014-9-2,95.6,82.3,74.0,83.8,77.4,72.6,100,86,64,30.00,29.89,6,0,6,0.00
2014-9-3,95.0,79.9,72.8,80.7,74.9,70.9,97,86,55,29.98,29.86,3,0,3,0.02
2014-9-4,93.0,78.2,71.1,82.4,75.2,69.8,98,91,65,30.00,29.93,1,0,1,0.78
2014-9-5,91.0,78.3,71.7,83.2,75.7,70.7,98,92,71,30.07,29.93,2,0,4,0.00
2014-9-6,96.0,79.8,70.3,83.2,75.5,69.4,98,88,59,29.99,29.85,2,0,2,0.00
2014-9-7,97.8,79.2,71.6,83.9,75.8,70.7,100,90,61,29.91,29.82,3,0,3,0.00
2014-9-8,94.1,77.9,72.1,82.5,74.9,70.9,98,91,64,29.93,29.86,3,0,3,0.07
2014-9-9,92.7,79.2,71.1,84.5,76.4,70.2,98,91,74,29.95,29.85,1,0,1,0.01
2014-9-10,94.6,81.0,74.0,83.5,77.3,72.7,98,89,67,29.91,29.82,1,0,2,0.00
2014-9-11,90.0,79.3,72.9,83.5,76.8,72.0,98,92,78,29.94,29.84,1,0,1,0.29
2014-9-12,90.8,79.3,72.9,85.2,76.9,72.0,100,93,74,29.95,29.86,2,0,2,0.24
2014-9-13,87.5,77.5,72.2,79.8,74.5,70.1,98,91,75,30.02,29.89,6,0,7,0.00
2014-9-14,93.1,77.5,68.9,82.2,73.4,66.6,96,88,66,30.04,29.95,6,0,6,0.00
2014-9-15,93.0,79.9,72.2,82.6,76.6,70.9,100,90,67,30.03,29.94,3,0,3,0.00
2014-9-16,93.0,77.7,72.4,82.0,74.9,71.5,98,92,67,29.99,29.87,3,0,3,0.16
2014-9-17,93.0,77.8,71.1,82.1,74.4,69.8,98,90,66,29.90,29.79,2,0,2,0.00
2014-9-18,91.8,77.1,69.4,81.5,73.5,68.4,100,89,63,29.87,29.78,9,0,9,0.05
2014-9-19,89.0,76.0,69.8,79.4,72.5,68.3,100,90,62,29.91,29.82,2,0,2,0.06
2014-9-20,89.8,76.0,68.3,76.4,70.7,67.0,97,85,57,29.94,29.84,6,0,6,0.02
2014-9-21,91.8,75.9,66.9,77.1,70.4,64.9,97,85,55,29.96,29.87,3,0,4,0.03
2014-9-22,92.8,74.5,64.8,78.6,68.9,58.5,98,84,57,29.97,29.88,6,0,7,0.01
2014-9-23,87.2,70.0,58.8,65.9,60.2,55.3,94,74,43,30.04,29.94,7,0,8,0.02
2014-9-24,86.3,71.1,60.8,71.9,65.3,59.2,96,84,57,30.09,29.99,6,0,6,0.00
2014-9-25,86.4,70.8,60.5,70.7,65.0,59.7,97,84,55,30.11,29.99,6,0,11,0.00
2014-9-26,85.8,70.9,63.0,70.8,65.6,61.8,98,85,57,30.03,29.92,6,0,6,0.03
2014-9-27,81.6,71.6,62.6,75.2,68.7,61.3,96,91,78,29.98,29.89,5,0,5,0.05
2014-9-28,83.3,74.9,70.1,77.5,72.6,67.7,97,93,81,29.93,29.84,4,0,5,0.11
2014-9-29,84.7,75.9,71.5,78.0,73.6,70.3,98,93,79,29.85,29.75,5,0,5,0.01
2014-9-30,86.1,74.7,68.1,76.9,71.6,67.2,100,91,70,29.84,29.76,4,0,5,0.11
2014-10-1,88.8,75.0,67.0,78.2,71.7,65.4,98,90,67,29.89,29.80,2,0,2,0.01
2014-10-2,91.8,79.7,72.3,82.0,76.7,71.3,98,91,71,29.93,29.83,4,0,4,0.12
2014-10-3,81.2,75.6,64.4,78.2,73.2,63.1,97,92,80,29.97,29.82,4,0,4,0.14
2014-10-4,73.7,60.9,47.8,63.1,52.8,45.4,100,78,40,30.03,29.94,8,0,9,0.01
2014-10-5,79.9,59.7,44.7,59.9,51.6,43.5,98,79,36,30.02,29.91,4,0,4,0.01
2014-10-6,83.5,67.7,54.3,72.0,63.0,52.6,98,86,63,29.98,29.86,4,0,4,0.09
2014-10-7,90.3,73.0,62.4,76.2,68.5,61.2,100,87,58,29.99,29.90,3,0,3,0.07
2014-10-8,90.5,73.6,63.9,78.9,69.8,62.6,98,89,64,30.05,29.96,4,0,4,0.04
2014-10-9,90.6,74.3,63.3,77.6,70.2,62.4,99,88,62,30.03,29.92,2,0,4,0.05
2014-10-10,91.0,77.8,70.3,78.7,73.2,68.9,98,87,60,29.98,29.90,4,0,4,0.16
2014-10-11,90.8,76.4,68.7,78.2,72.6,67.5,100,89,59,29.97,29.88,4,0,4,0.00
2014-10-12,89.3,75.3,68.3,79.2,71.9,67.4,98,90,68,29.95,29.86,4,0,4,0.01
2014-10-13,87.4,77.0,69.7,79.8,74.4,68.8,98,92,76,29.90,29.69,10,1,10,1.07
2014-10-14,78.1,65.1,54.7,72.4,60.2,53.0,97,86,53,29.92,29.69,6,0,6,0.31
2014-10-15,79.9,60.0,48.1,59.7,52.7,47.3,98,80,39,29.97,29.85,4,0,4,0.00
2014-10-16,83.7,60.5,47.3,61.2,53.4,45.9,100,82,36,29.97,29.85,3,0,3,0.00
2014-10-17,85.1,63.6,48.7,69.5,58.3,47.5,100,85,48,29.97,29.86,3,0,3,0.00
2014-10-18,86.0,69.0,56.8,72.4,64.2,55.9,100,86,59,29.96,29.85,7,0,7,0.00
2014-10-19,79.1,63.0,51.5,60.2,55.6,50.4,96,79,43,30.06,29.95,5,0,5,0.00
2014-10-20,82.7,60.4,47.0,61.4,53.8,46.4,98,82,41,30.01,29.90,3,0,3,0.00
2014-10-21,82.5,62.4,50.4,62.8,55.9,48.8,98,82,47,30.00,29.87,5,0,5,0.00
2014-10-22,80.6,63.4,53.0,60.6,55.9,49.7,100,80,46,30.03,29.93,3,0,6,0.00
2014-10-23,76.8,58.9,46.8,57.4,51.0,44.7,94,78,41,30.06,29.94,5,0,5,0.00
2014-10-24,78.3,60.2,50.1,57.1,51.7,47.9,97,77,39,30.04,29.92,5,0,5,0.00
2014-10-25,81.1,61.1,46.9,63.8,55.0,45.3,98,83,51,30.09,29.96,6,0,6,0.00
2014-10-26,88.1,66.4,54.1,70.8,61.2,53.0,98,85,53,30.02,29.89,1,0,5,0.00
2014-10-27,82.5,66.4,56.0,71.9,63.3,54.8,100,91,69,30.00,29.93,4,0,4,0.00
2014-10-28,84.7,69.0,57.3,72.6,64.5,55.9,99,87,61,30.05,29.96,4,0,4,0.00
2014-10-29,86.3,70.7,62.3,74.0,66.7,60.7,98,88,59,30.02,29.90,6,0,6,0.00
2014-10-30,75.0,60.7,46.6,60.6,50.7,44.7,93,73,38,30.04,29.92,9,0,9,0.00
2014-10-31,78.7,58.2,44.0,58.4,48.7,41.1,98,74,40,30.10,29.85,9,0,9,0.00
2014-11-1,62.0,48.2,35.9,41.9,32.5,25.6,89,57,30,30.31,30.08,10,0,10,0.00
2014-11-2,66.2,46.5,33.7,43.6,37.6,30.4,96,75,34,30.40,30.24,5,0,5,0.00
2014-11-3,75.5,54.0,36.1,57.8,47.4,35.1,96,81,52,30.35,30.22,2,0,4,0.00
2014-11-4,81.3,63.4,51.7,64.6,57.5,49.4,96,83,52,30.23,30.10,5,0,5,0.00
2014-11-5,80.5,67.4,58.5,69.6,64.1,57.7,98,90,68,30.13,30.04,2,0,5,0.00
2014-11-6,77.2,66.3,56.3,71.7,62.3,47.0,98,87,71,30.09,29.99,4,0,4,0.02
2014-11-7,67.2,53.2,42.3,47.7,44.1,40.4,95,73,45,30.13,29.95,4,0,6,0.00
2014-11-8,65.8,50.3,42.2,48.3,44.5,40.5,95,82,48,30.03,29.88,4,0,4,0.00
2014-11-9,72.5,54.4,41.4,54.2,48.0,40.3,96,81,48,30.01,29.89,6,0,6,0.00
2014-11-10,74.2,52.5,37.2,55.1,46.8,36.4,98,84,44,30.02,29.88,3,0,4,0.00
2014-11-11,77.3,60.4,45.8,68.0,57.2,44.7,98,90,69,29.98,29.88,4,0,4,0.00
2014-11-12,68.2,57.7,47.9,61.0,54.7,45.0,98,90,77,30.10,29.93,8,0,8,0.00
2014-11-13,47.8,42.8,38.2,45.3,38.2,29.6,95,84,69,30.24,30.08,5,0,10,0.09
2014-11-14,52.6,38.8,31.6,31.6,26.6,23.5,85,64,34,30.32,30.18,3,0,7,0.00
2014-11-15,61.8,43.7,30.4,44.5,34.1,25.4,90,72,35,30.32,30.12,3,0,3,0.00
2014-11-16,75.2,62.1,45.0,68.8,58.7,42.3,96,89,75,30.13,29.74,10,0,10,0.00
2014-11-17,71.7,51.2,32.7,69.6,46.4,28.4,96,84,62,30.28,29.70,15,0,15,0.38
2014-11-18,50.0,34.6,25.9,28.6,25.5,19.8,94,73,32,30.46,30.28,11,0,11,0.00
2014-11-19,60.1,37.1,23.1,36.1,28.8,21.6,96,77,33,30.44,30.25,3,0,3,0.00
2014-11-20,69.5,47.0,30.8,53.7,40.8,29.2,98,82,45,30.28,30.13,5,0,5,0.00
2014-11-21,72.5,51.6,37.3,56.1,45.4,35.8,98,82,46,30.28,30.17,5,0,5,0.00
2014-11-22,70.7,58.5,46.1,61.2,54.8,44.8,96,88,69,30.21,29.84,6,0,6,0.00
2014-11-23,71.7,65.2,61.8,71.1,63.7,60.3,100,95,85,29.84,29.57,9,1,9,0.04
2014-11-24,78.9,66.4,53.7,67.3,59.4,41.9,98,80,51,29.99,29.67,4,0,5,0.00
2014-11-25,61.2,53.7,44.1,44.2,40.8,34.2,77,62,43,30.12,29.97,8,0,8,0.00
2014-11-26,63.7,48.7,32.7,48.7,39.3,28.0,96,73,37,30.24,30.09,4,0,4,0.00
2014-11-27,62.7,48.3,36.3,46.4,39.7,33.7,97,75,40,30.39,30.17,10,0,10,0.00
2014-11-28,62.2,43.5,31.6,42.6,35.4,30.2,96,76,33,30.42,30.20,4,0,4,0.00
2014-11-29,72.3,52.6,32.8,61.4,49.0,31.3,98,89,67,30.23,30.10,3,0,9,0.00
2014-11-30,78.0,62.7,51.3,67.3,59.4,50.4,100,90,67,30.20,30.11,10,0,10,0.00
2014-12-1,78.6,62.8,52.6,66.6,59.2,51.4,100,89,65,30.29,30.18,5,0,5,0.00
2014-12-2,79.4,60.3,50.5,63.2,55.6,48.7,98,86,52,30.25,30.09,3,0,3,0.00
2014-12-3,77.5,62.0,51.1,67.1,59.1,50.1,100,91,68,30.18,30.08,2,0,2,0.00
2014-12-4,80.3,65.2,55.6,69.9,62.5,54.7,98,91,70,30.17,30.08,7,0,7,0.00
2014-12-5,78.9,67.6,58.1,70.5,64.7,56.6,99,91,72,30.18,30.09,7,0,7,0.00
2014-12-6,81.5,68.8,56.7,71.8,64.9,51.2,98,88,67,30.19,30.06,8,0,8,0.00
2014-12-7,61.5,52.3,43.1,51.4,46.9,41.5,94,83,62,30.26,30.12,8,0,8,0.00
2014-12-8,68.9,52.2,43.0,54.2,47.3,41.7,96,85,57,30.20,30.08,4,0,4,0.00
2014-12-9,68.5,49.3,39.9,50.5,42.9,38.9,100,82,42,30.22,30.09,8,0,8,0.00
2014-12-10,60.7,45.1,36.2,41.9,38.4,34.4,95,79,47,30.26,30.09,5,0,5,0.00
2014-12-11,62.7,45.4,35.3,45.8,39.7,33.7,97,83,49,30.27,30.13,5,0,5,0.00
2014-12-12,61.0,48.3,40.5,49.0,42.9,38.9,95,83,59,30.34,30.21,1,0,4,0.00
2014-12-13,70.0,51.4,41.1,50.9,44.4,39.8,96,80,47,30.26,30.11,5,0,6,0.00
2014-12-14,69.5,50.0,38.3,55.2,45.8,36.6,98,87,58,30.17,30.00,5,0,5,0.00
2014-12-15,71.0,56.9,40.0,64.1,54.5,39.0,98,92,77,30.04,29.92,10,0,10,0.00
2014-12-16,69.3,58.2,39.9,64.6,49.6,37.7,95,76,41,30.20,29.96,5,0,7,0.01
2014-12-17,60.4,45.7,33.7,47.1,40.8,32.3,97,85,57,30.26,30.11,4,0,4,0.00
2014-12-18,67.8,53.1,41.0,54.0,47.4,39.8,97,82,56,30.17,30.02,4,0,4,0.00
2014-12-19,53.7,50.5,47.0,51.4,49.1,45.6,97,95,91,30.15,29.98,6,0,6,1.47
2014-12-20,52.4,49.7,46.9,50.4,48.2,45.8,97,95,93,30.10,30.00,7,0,7,0.07
2014-12-21,61.5,54.9,48.4,56.3,52.6,46.4,97,92,81,30.09,29.88,3,0,3,0.00
2014-12-22,68.8,62.8,55.7,68.2,62.0,54.9,98,97,96,29.88,29.66,5,0,5,0.96
2014-12-23,71.0,67.2,64.5,69.6,66.6,63.9,100,98,94,29.69,29.48,4,0,10,1.05
2014-12-24,64.5,55.0,36.6,63.9,51.8,35.2,98,89,69,30.06,29.49,4,0,9,0.34
2014-12-25,59.4,42.8,32.6,46.0,38.6,31.5,98,86,54,30.25,30.06,4,0,4,0.00
2014-12-26,69.3,52.8,36.8,59.2,49.0,35.9,100,88,67,30.23,30.08,4,0,4,0.00
2014-12-27,67.2,62.7,56.8,66.6,61.1,53.2,98,95,86,30.13,30.00,1,0,2,1.60
2014-12-28,75.3,66.3,56.7,73.1,65.3,55.6,99,96,91,30.06,29.92,3,0,5,0.25
2014-12-29,66.5,58.4,52.2,61.5,56.9,51.3,98,95,83,30.09,29.94,2,0,4,0.00
2014-12-30,56.6,50.6,38.6,56.0,48.6,37.3,98,93,83,30.36,30.08,8,0,8,0.00
2014-12-31,58.5,44.9,35.3,48.2,40.9,34.3,96,87,66,30.39,30.25,3,0,8,0.00
2015-1-1,59.7,48.9,38.8,54.4,46.3,37.5,96,91,81,30.31,30.13,4,0,4,0.00
2015-1-2,69.0,61.8,53.2,67.4,60.0,49.8,98,94,88,30.14,30.00,2,0,2,0.04